createdAt,value
2024-03-07T00:00:20.516Z,99868.78
2024-03-07T00:02:53.101Z,99871.53
2024-03-07T00:05:27.835Z,99876.28
2024-03-07T00:08:01.083Z,99876.16
2024-03-07T00:10:38.149Z,99875.31
2024-03-07T00:13:14.332Z,99874.38
2024-03-07T00:15:46.210Z,99867.13
2024-03-07T00:18:18.292Z,99873.41
2024-03-07T00:20:50.387Z,99873.78
2024-03-07T00:23:25.249Z,99865.56
2024-03-07T00:25:57.338Z,99865.31
2024-03-07T00:28:33.589Z,99864.38
2024-03-07T00:31:05.543Z,99862.38
2024-03-07T00:33:52.984Z,99866.03
2024-03-07T00:36:32.034Z,99870.34
2024-03-07T00:39:04.613Z,99866.88
2024-03-07T00:41:36.683Z,99863.06
2024-03-07T00:44:10.755Z,99861.75
2024-03-07T00:46:42.551Z,99862.72
2024-03-07T00:49:14.574Z,99861.50
2024-03-07T00:51:49.089Z,99856.66
2024-03-07T00:54:23.444Z,99858.28
2024-03-07T00:56:56.463Z,99853.66
2024-03-07T00:59:31.128Z,99853.28
2024-03-07T01:02:03.545Z,99853.16
2024-03-07T01:04:35.420Z,99853.06
2024-03-07T01:07:07.072Z,99851.50
2024-03-07T01:09:38.902Z,99853.63
2024-03-07T01:12:12.629Z,99843.59
2024-03-07T01:14:44.597Z,99851.94
2024-03-07T01:17:16.780Z,99846.81
2024-03-07T01:19:48.914Z,99838.47
2024-03-07T01:22:21.376Z,99829.00
2024-03-07T01:24:53.148Z,99838.13
2024-03-07T01:27:35.738Z,99836.03
2024-03-07T01:30:10.949Z,99836.53
2024-03-07T01:32:42.799Z,99832.72
2024-03-07T01:35:14.846Z,99826.88
2024-03-07T01:37:46.593Z,99831.50
2024-03-07T01:40:22.092Z,99841.03
2024-03-07T01:42:53.833Z,99833.44
2024-03-07T01:45:25.525Z,99837.69
2024-03-07T01:47:57.735Z,99832.91
2024-03-07T01:50:30.044Z,99834.91
2024-03-07T01:53:10.978Z,99825.63
2024-03-07T01:55:43.114Z,99822.44
2024-03-07T01:58:23.642Z,99829.78
2024-03-07T02:00:55.673Z,99827.78
2024-03-07T02:03:27.553Z,99823.94
2024-03-07T02:05:59.908Z,99816.47
2024-03-07T02:08:33.123Z,99814.69
2024-03-07T02:11:05.203Z,99816.69
2024-03-07T02:13:39.049Z,99810.16
2024-03-07T02:16:10.927Z,99805.75
2024-03-07T02:18:42.845Z,99807.88
2024-03-07T02:21:14.823Z,99807.66
2024-03-07T02:23:46.655Z,99811.13
2024-03-07T02:26:19.849Z,99809.44
2024-03-07T02:28:51.642Z,99809.31
2024-03-07T02:31:36.401Z,99807.72
2024-03-07T02:34:08.831Z,99806.66
2024-03-07T02:36:40.587Z,99807.72
2024-03-07T02:39:13.098Z,99804.28
2024-03-07T02:41:44.869Z,99798.47
2024-03-07T02:44:16.627Z,99796.09
2024-03-07T02:46:51.086Z,99800.13
2024-03-07T02:49:22.829Z,99797.63
2024-03-07T02:51:57.757Z,99797.38
2024-03-07T02:54:29.761Z,99798.53
2024-03-07T02:57:02.431Z,99796.03
2024-03-07T02:59:37.872Z,99787.94
2024-03-07T03:02:12.547Z,99794.25
2024-03-07T03:04:46.659Z,99791.56
2024-03-07T03:07:18.939Z,99796.91
2024-03-07T03:09:50.717Z,99796.47
2024-03-07T03:12:23.801Z,99805.03
2024-03-07T03:14:55.689Z,99801.19
2024-03-07T03:17:28.652Z,99794.06
2024-03-07T03:20:00.551Z,99793.91
2024-03-07T03:22:35.044Z,99794.91
2024-03-07T03:25:08.292Z,99796.09
2024-03-07T03:27:41.383Z,99796.69
2024-03-07T03:30:15.220Z,99789.16
2024-03-07T03:32:48.573Z,99791.63
2024-03-07T03:35:23.658Z,99788.06
2024-03-07T03:37:58.076Z,99788.06
2024-03-07T03:40:32.956Z,99794.69
2024-03-07T03:43:04.777Z,99792.91
2024-03-07T03:45:36.767Z,99790.00
2024-03-07T03:48:08.849Z,99791.91
2024-03-07T03:50:40.705Z,99788.00
2024-03-07T03:53:13.022Z,99785.09
2024-03-07T03:55:44.763Z,99789.50
2024-03-07T03:58:17.999Z,99790.09
2024-03-07T04:00:49.980Z,99783.25
2024-03-07T04:03:22.104Z,99786.34
2024-03-07T04:05:56.830Z,99788.72
2024-03-07T04:08:28.983Z,99792.69
2024-03-07T04:11:00.765Z,99784.09
2024-03-07T04:13:34.884Z,99787.44
2024-03-07T04:16:07.243Z,99787.06
2024-03-07T04:18:39.931Z,99781.44
2024-03-07T04:21:14.226Z,99786.44
2024-03-07T04:23:55.198Z,99776.63
2024-03-07T04:26:27.545Z,99779.41
2024-03-07T04:28:59.367Z,99783.47
2024-03-07T04:31:31.145Z,99784.09
2024-03-07T04:34:02.820Z,99777.41
2024-03-07T04:36:36.096Z,99780.28
2024-03-07T04:39:23.589Z,99777.16
2024-03-07T04:41:58.137Z,99782.84
2024-03-07T04:44:31.308Z,99780.59
2024-03-07T04:47:04.579Z,99783.47
2024-03-07T04:49:36.645Z,99779.19
2024-03-07T04:52:08.313Z,99787.88
2024-03-07T04:54:43.330Z,99778.75
2024-03-07T04:57:14.929Z,99795.81
2024-03-07T04:59:46.672Z,99790.69
2024-03-07T05:02:18.844Z,99785.56
2024-03-07T05:04:51.795Z,99783.53
2024-03-07T05:07:24.712Z,99797.31
2024-03-07T05:09:56.890Z,99799.81
2024-03-07T05:12:32.084Z,99802.72
2024-03-07T05:15:05.419Z,99802.38
2024-03-07T05:17:39.132Z,99804.38
2024-03-07T05:20:12.052Z,99807.78
2024-03-07T05:22:53.145Z,99808.72
2024-03-07T05:25:25.058Z,99797.41
2024-03-07T05:28:02.211Z,99816.69
2024-03-07T05:30:34.506Z,99809.56
2024-03-07T05:33:06.254Z,99813.97
2024-03-07T05:35:38.446Z,99811.25
2024-03-07T05:38:10.191Z,99820.19
2024-03-07T05:40:45.404Z,99823.41
2024-03-07T05:43:17.111Z,99828.75
2024-03-07T05:45:49.288Z,99831.13
2024-03-07T05:48:25.385Z,99828.75
2024-03-07T05:50:57.760Z,99829.25
2024-03-07T05:53:32.593Z,99838.41
2024-03-07T05:56:05.697Z,99838.66
2024-03-07T05:58:37.507Z,99841.03
2024-03-07T06:01:12.743Z,99844.22
2024-03-07T06:03:44.575Z,99834.56
2024-03-07T06:06:22.273Z,99840.66
2024-03-07T06:08:56.532Z,99840.75
2024-03-07T06:11:31.760Z,99842.44
2024-03-07T06:14:04.840Z,99847.56
2024-03-07T06:16:39.885Z,99849.94
2024-03-07T06:19:12.622Z,99847.19
2024-03-07T06:21:44.629Z,99845.31
2024-03-07T06:24:18.729Z,99844.00
2024-03-07T06:27:01.271Z,99845.69
2024-03-07T06:29:33.275Z,99849.13
2024-03-07T06:32:11.753Z,99848.31
2024-03-07T06:34:44.151Z,99844.38
2024-03-07T06:37:15.964Z,99851.53
2024-03-07T06:39:50.791Z,99855.09
2024-03-07T06:42:25.863Z,99853.53
2024-03-07T06:44:58.900Z,99847.22
2024-03-07T06:47:32.779Z,99850.56
2024-03-07T06:50:05.189Z,99846.75
2024-03-07T06:52:37.785Z,99856.34
2024-03-07T06:55:10.022Z,99859.13
2024-03-07T06:57:42.288Z,99856.88
2024-03-07T07:00:15.424Z,99860.66
2024-03-07T07:02:51.893Z,99862.53
2024-03-07T07:05:24.536Z,99861.72
2024-03-07T07:07:56.521Z,99872.53
2024-03-07T07:10:28.424Z,99872.19
2024-03-07T07:13:00.636Z,99870.41
2024-03-07T07:15:32.340Z,99877.56
2024-03-07T07:18:09.291Z,99869.00
2024-03-07T07:20:41.229Z,99872.44
2024-03-07T07:23:15.454Z,99875.78
2024-03-07T07:25:50.367Z,99873.75
2024-03-07T07:28:22.835Z,99869.44
2024-03-07T07:30:55.883Z,99871.84
2024-03-07T07:33:29.252Z,99871.50
2024-03-07T07:36:03.685Z,99874.00
2024-03-07T07:38:35.662Z,99868.00
2024-03-07T07:41:11.459Z,99877.88
2024-03-07T07:43:44.178Z,99880.84
2024-03-07T07:46:17.640Z,99873.34
2024-03-07T07:48:49.399Z,99867.97
2024-03-07T07:51:21.497Z,99873.81
2024-03-07T07:53:56.490Z,99871.53
2024-03-07T07:56:30.800Z,99870.84
2024-03-07T07:59:05.708Z,99870.09
2024-03-07T08:01:37.443Z,99871.53
2024-03-07T08:04:10.983Z,99874.34
2024-03-07T08:06:42.747Z,99876.38
2024-03-07T08:09:17.779Z,99872.28
2024-03-07T08:11:51.535Z,99875.50
2024-03-07T08:14:30.022Z,99875.94
2024-03-07T08:17:01.770Z,99874.50
2024-03-07T08:19:33.848Z,99878.09
2024-03-07T08:22:05.634Z,99875.91
2024-03-07T08:24:37.496Z,99875.28
2024-03-07T08:27:12.508Z,99875.66
2024-03-07T08:29:44.657Z,99870.44
2024-03-07T08:32:16.803Z,99868.41
2024-03-07T08:34:48.866Z,99871.78
2024-03-07T08:37:22.476Z,99869.25
2024-03-07T08:39:54.920Z,99862.50
2024-03-07T08:42:26.685Z,99860.41
2024-03-07T08:44:58.598Z,99863.16
2024-03-07T08:47:39.104Z,99864.06
2024-03-07T08:50:10.961Z,99863.03
2024-03-07T08:52:46.385Z,99858.22
2024-03-07T08:55:21.252Z,99859.78
2024-03-07T08:57:56.085Z,99862.09
2024-03-07T09:00:28.672Z,99855.41
2024-03-07T09:03:06.788Z,99856.28
2024-03-07T09:05:38.927Z,99852.84
2024-03-07T09:08:10.710Z,99852.59
2024-03-07T09:10:48.772Z,99845.97
2024-03-07T09:13:20.544Z,99852.91
2024-03-07T09:15:53.733Z,99852.38
2024-03-07T09:18:26.715Z,99857.91
2024-03-07T09:21:01.621Z,99855.59
2024-03-07T09:23:33.467Z,99863.19
2024-03-07T09:26:08.448Z,99855.25
2024-03-07T09:28:40.952Z,99853.44
2024-03-07T09:31:17.489Z,99850.13
2024-03-07T09:33:50.111Z,99859.13
2024-03-07T09:36:22.617Z,99858.41
2024-03-07T09:38:55.035Z,99854.53
2024-03-07T09:41:26.970Z,99854.41
2024-03-07T09:44:01.501Z,99852.44
2024-03-07T09:46:33.548Z,99862.41
2024-03-07T09:49:07.947Z,99853.56
2024-03-07T09:51:39.965Z,99851.50
2024-03-07T09:54:12.159Z,99854.09
2024-03-07T09:56:47.757Z,99853.09
2024-03-07T09:59:23.539Z,99857.78
2024-03-07T10:02:02.973Z,99855.28
2024-03-07T10:04:37.647Z,99859.84
2024-03-07T10:07:15.100Z,99856.44
2024-03-07T10:09:48.706Z,99855.56
2024-03-07T10:12:20.622Z,99849.88
2024-03-07T10:14:58.695Z,99852.38
2024-03-07T10:17:33.252Z,99860.69
2024-03-07T10:20:10.784Z,99859.19
2024-03-07T10:22:44.805Z,99858.31
2024-03-07T10:25:21.774Z,99861.81
2024-03-07T10:27:54.182Z,99852.56
2024-03-07T10:30:26.661Z,99858.81
2024-03-07T10:33:02.005Z,99869.31
2024-03-07T10:35:34.961Z,99854.63
2024-03-07T10:38:15.117Z,99853.16
2024-03-07T10:40:54.948Z,99849.59
2024-03-07T10:43:30.624Z,99862.84
2024-03-07T10:46:08.019Z,99850.97
2024-03-07T10:48:41.786Z,99863.44
2024-03-07T10:51:26.337Z,99856.16
2024-03-07T10:54:32.400Z,99856.06
2024-03-07T10:57:22.351Z,99853.03
2024-03-07T11:00:02.823Z,99863.78
2024-03-07T11:02:46.155Z,99863.06
2024-03-07T11:05:25.431Z,99861.78
2024-03-07T11:07:59.089Z,99863.00
2024-03-07T11:10:36.258Z,99852.50
2024-03-07T11:13:14.187Z,99851.53
2024-03-07T11:15:50.204Z,99849.41
2024-03-07T11:18:22.325Z,99850.56
2024-03-07T11:20:59.102Z,99840.91
2024-03-07T11:23:39.881Z,99843.72
2024-03-07T11:26:15.010Z,99836.78
2024-03-07T11:28:48.686Z,99836.66
2024-03-07T11:31:29.102Z,99834.03
2024-03-07T11:34:21.005Z,99832.97
2024-03-07T11:36:56.780Z,99830.59
2024-03-07T11:39:51.164Z,99833.06
2024-03-07T11:42:27.987Z,99833.72
2024-03-07T11:45:07.175Z,99823.53
2024-03-07T11:47:44.238Z,99821.03
2024-03-07T11:50:21.016Z,99821.56
2024-03-07T11:52:57.735Z,99824.78
2024-03-07T11:55:49.146Z,99825.22
2024-03-07T11:58:25.706Z,99819.25
2024-03-07T12:00:59.723Z,99821.72
2024-03-07T12:03:35.475Z,99826.00
2024-03-07T12:06:09.483Z,99825.44
2024-03-07T12:08:43.178Z,99824.19
2024-03-07T12:11:17.272Z,99827.75
2024-03-07T12:13:50.026Z,99828.28
2024-03-07T12:16:22.490Z,99828.94
2024-03-07T12:18:57.331Z,99829.09
2024-03-07T12:21:29.347Z,99816.75
2024-03-07T12:24:11.709Z,99818.94
2024-03-07T12:26:44.052Z,99820.63
2024-03-07T12:29:17.009Z,99805.25
2024-03-07T12:31:49.818Z,99821.88
2024-03-07T12:34:30.983Z,99816.00
2024-03-07T12:37:04.633Z,99809.41
2024-03-07T12:39:39.820Z,99806.84
2024-03-07T12:42:15.836Z,99812.78
2024-03-07T12:45:04.368Z,99814.50
2024-03-07T12:47:38.594Z,99812.13
2024-03-07T12:50:12.437Z,99809.25
2024-03-07T12:52:46.966Z,99808.25
2024-03-07T12:55:25.211Z,99810.44
2024-03-07T12:57:58.149Z,99813.50
2024-03-07T13:00:32.847Z,99804.41
2024-03-07T13:03:07.377Z,99805.50
2024-03-07T13:05:44.383Z,99808.13
2024-03-07T13:08:19.414Z,99808.53
2024-03-07T13:10:51.622Z,99803.16
2024-03-07T13:13:24.147Z,99806.75
2024-03-07T13:15:58.936Z,99805.25
2024-03-07T13:18:36.277Z,99809.97
2024-03-07T13:21:11.947Z,99818.09
2024-03-07T13:23:45.746Z,99819.88
2024-03-07T13:26:22.228Z,99820.13
2024-03-07T13:28:55.480Z,99817.91
2024-03-07T13:31:27.534Z,99811.81
2024-03-07T13:34:02.948Z,99809.50
2024-03-07T13:36:34.981Z,99810.22
2024-03-07T13:39:08.963Z,99800.44
2024-03-07T13:41:49.424Z,99817.53
2024-03-07T13:44:23.468Z,99811.72
2024-03-07T13:46:55.829Z,99823.97
2024-03-07T13:49:29.220Z,99817.38
2024-03-07T13:52:11.948Z,99822.50
2024-03-07T13:54:46.003Z,99812.94
2024-03-07T13:57:44.619Z,99810.75
2024-03-07T14:00:43.574Z,99820.13
2024-03-07T14:04:05.033Z,99816.28
2024-03-07T14:06:45.858Z,99810.31
2024-03-07T14:09:29.664Z,99815.81
2024-03-07T14:12:29.669Z,99814.50
2024-03-07T14:15:38.959Z,99819.75
2024-03-07T14:18:36.971Z,99821.38
2024-03-07T14:21:36.189Z,99818.06
2024-03-07T14:24:32.836Z,99809.91
2024-03-07T14:27:24.146Z,99809.66
2024-03-07T14:30:36.365Z,99804.41
2024-03-07T14:33:09.324Z,99804.00
2024-03-07T14:36:02.065Z,99802.78
2024-03-07T14:38:52.878Z,99801.41
2024-03-07T14:41:57.677Z,99808.31
2024-03-07T14:44:30.081Z,99806.81
2024-03-07T14:47:08.525Z,99799.19
2024-03-07T14:49:42.979Z,99807.72
2024-03-07T14:52:16.125Z,99809.09
2024-03-07T14:54:49.006Z,99811.03
2024-03-07T14:57:22.975Z,99802.75
2024-03-07T14:59:55.858Z,99805.69
2024-03-07T15:02:28.165Z,99807.34
2024-03-07T15:05:00.329Z,99813.50
2024-03-07T15:07:32.417Z,99809.25
2024-03-07T15:10:12.569Z,99806.47
2024-03-07T15:12:48.136Z,99799.00
2024-03-07T15:15:21.072Z,99801.38
2024-03-07T15:17:55.194Z,99803.47
2024-03-07T15:20:32.483Z,99798.22
2024-03-07T15:23:09.423Z,99803.72
2024-03-07T15:25:41.386Z,99811.88
2024-03-07T15:28:13.629Z,99805.78
2024-03-07T15:30:47.276Z,99808.41
2024-03-07T15:33:20.231Z,99794.16
2024-03-07T15:35:53.454Z,99797.50
2024-03-07T15:38:27.067Z,99791.41
2024-03-07T15:41:04.969Z,99791.28
2024-03-07T15:43:37.181Z,99799.47
2024-03-07T15:46:08.974Z,99793.81
2024-03-07T15:48:42.368Z,99785.63
2024-03-07T15:51:15.720Z,99795.84
2024-03-07T15:53:50.439Z,99786.75
2024-03-07T15:56:22.364Z,99785.63
2024-03-07T15:58:57.267Z,99790.59
2024-03-07T16:01:30.215Z,99787.13
2024-03-07T16:04:06.694Z,99796.13
2024-03-07T16:06:45.225Z,99787.78
2024-03-07T16:09:36.641Z,99795.22
2024-03-07T16:12:09.229Z,99794.81
2024-03-07T16:14:41.047Z,99794.81
2024-03-07T16:17:15.295Z,99795.75
2024-03-07T16:19:50.333Z,99787.34
2024-03-07T16:22:22.558Z,99796.59
2024-03-07T16:24:56.311Z,99791.25
2024-03-07T16:27:28.061Z,99791.88
2024-03-07T16:30:01.054Z,99781.91
2024-03-07T16:32:39.310Z,99787.16
2024-03-07T16:35:11.239Z,99786.84
2024-03-07T16:37:47.353Z,99793.31
2024-03-07T16:40:20.938Z,99784.50
2024-03-07T16:42:55.222Z,99788.78
2024-03-07T16:45:29.528Z,99784.63
2024-03-07T16:48:10.603Z,99791.81
2024-03-07T16:50:44.423Z,99788.16
2024-03-07T16:53:19.659Z,99793.66
2024-03-07T16:55:51.346Z,99793.09
2024-03-07T16:58:23.522Z,99798.59
2024-03-07T17:00:56.754Z,99792.38
2024-03-07T17:03:28.566Z,99795.16
2024-03-07T17:06:04.065Z,99795.72
2024-03-07T17:08:35.881Z,99803.34
2024-03-07T17:11:09.078Z,99798.59
2024-03-07T17:13:42.974Z,99804.09
2024-03-07T17:16:17.601Z,99808.78
2024-03-07T17:18:50.389Z,99804.09
2024-03-07T17:21:22.247Z,99801.06
2024-03-07T17:23:57.079Z,99801.75
2024-03-07T17:26:32.208Z,99811.25
2024-03-07T17:29:04.462Z,99807.34
2024-03-07T17:31:36.807Z,99812.31
2024-03-07T17:34:09.007Z,99811.31
2024-03-07T17:36:45.302Z,99808.69
2024-03-07T17:39:17.252Z,99811.47
2024-03-07T17:41:50.929Z,99816.13
2024-03-07T17:44:22.840Z,99818.75
2024-03-07T17:46:54.784Z,99821.25
2024-03-07T17:49:26.525Z,99814.59
2024-03-07T17:51:59.007Z,99820.41
2024-03-07T17:54:32.696Z,99816.25
2024-03-07T17:57:07.015Z,99813.63
2024-03-07T17:59:42.487Z,99820.81
2024-03-07T18:02:21.926Z,99820.16
2024-03-07T18:04:54.024Z,99818.38
2024-03-07T18:07:29.928Z,99822.69
2024-03-07T18:10:13.887Z,99818.06
2024-03-07T18:12:54.270Z,99827.09
2024-03-07T18:15:28.976Z,99818.66
2024-03-07T18:18:05.322Z,99827.59
2024-03-07T18:20:52.323Z,99819.88
2024-03-07T18:23:28.103Z,99821.41
2024-03-07T18:26:01.917Z,99826.75
2024-03-07T18:28:34.692Z,99817.75
2024-03-07T18:31:28.691Z,99825.47
2024-03-07T18:34:01.191Z,99829.75
2024-03-07T18:36:35.907Z,99836.66
2024-03-07T18:39:16.802Z,99829.44
2024-03-07T18:41:52.844Z,99830.75
2024-03-07T18:44:27.819Z,99839.00
2024-03-07T18:47:01.876Z,99834.25
2024-03-07T18:49:37.196Z,99843.69
2024-03-07T18:52:08.986Z,99838.59
2024-03-07T18:54:44.399Z,99841.47
2024-03-07T18:57:31.504Z,99837.44
2024-03-07T19:00:05.736Z,99837.22
2024-03-07T19:02:42.290Z,99841.78
2024-03-07T19:05:15.560Z,99846.78
2024-03-07T19:07:47.310Z,99850.25
2024-03-07T19:10:19.329Z,99853.19
2024-03-07T19:12:54.923Z,99857.75
2024-03-07T19:15:28.570Z,99861.88
2024-03-07T19:18:01.191Z,99852.38
2024-03-07T19:20:33.331Z,99857.38
2024-03-07T19:23:10.176Z,99858.59
2024-03-07T19:25:54.990Z,99860.47
2024-03-07T19:28:26.977Z,99856.19
2024-03-07T19:31:00.218Z,99852.63
2024-03-07T19:33:35.475Z,99856.78
2024-03-07T19:36:14.604Z,99851.22
2024-03-07T19:38:49.763Z,99859.84
2024-03-07T19:41:24.089Z,99855.09
2024-03-07T19:43:58.920Z,99853.31
2024-03-07T19:46:32.722Z,99845.94
2024-03-07T19:49:07.657Z,99849.16
2024-03-07T19:51:40.072Z,99846.41
2024-03-07T19:54:13.592Z,99846.41
2024-03-07T19:56:51.592Z,99849.03
2024-03-07T19:59:23.567Z,99850.00
2024-03-07T20:01:55.773Z,99841.44
2024-03-07T20:04:27.473Z,99844.97
2024-03-07T20:07:00.407Z,99842.25
2024-03-07T20:09:36.714Z,99844.03
2024-03-07T20:12:08.751Z,99838.91
2024-03-07T20:14:40.646Z,99843.06
2024-03-07T20:17:13.060Z,99842.25
2024-03-07T20:19:47.939Z,99848.41
2024-03-07T20:22:22.761Z,99837.47
2024-03-07T20:24:54.432Z,99847.22
2024-03-07T20:27:26.170Z,99850.19
2024-03-07T20:29:59.123Z,99846.94
2024-03-07T20:32:31.177Z,99848.84
2024-03-07T20:35:07.259Z,99841.72
2024-03-07T20:37:39.837Z,99846.72
2024-03-07T20:40:14.643Z,99840.06
2024-03-07T20:42:46.409Z,99844.47
2024-03-07T20:45:22.967Z,99844.47
2024-03-07T20:47:55.640Z,99843.38
2024-03-07T20:50:30.129Z,99843.63
2024-03-07T20:53:02.429Z,99834.31
2024-03-07T20:55:37.188Z,99828.88
2024-03-07T20:58:10.326Z,99833.34
2024-03-07T21:00:48.434Z,99834.44
2024-03-07T21:03:24.695Z,99830.53
2024-03-07T21:05:58.693Z,99835.47
2024-03-07T21:08:34.134Z,99824.81
2024-03-07T21:11:07.591Z,99829.03
2024-03-07T21:13:40.298Z,99828.22
2024-03-07T21:16:13.021Z,99824.53
2024-03-07T21:18:45.100Z,99822.97
2024-03-07T21:21:16.816Z,99820.06
2024-03-07T21:23:49.154Z,99820.63
2024-03-07T21:26:21.050Z,99812.50
2024-03-07T21:28:55.163Z,99814.75
2024-03-07T21:31:27.806Z,99822.72
2024-03-07T21:33:59.585Z,99817.63
2024-03-07T21:36:31.390Z,99822.84
2024-03-07T21:39:03.234Z,99825.44
2024-03-07T21:41:38.201Z,99825.56
2024-03-07T21:44:10.279Z,99817.13
2024-03-07T21:46:42.624Z,99820.78
2024-03-07T21:49:15.438Z,99819.75
2024-03-07T21:51:50.556Z,99815.22
2024-03-07T21:54:23.033Z,99812.50
2024-03-07T21:57:00.700Z,99813.09
2024-03-07T21:59:35.261Z,99810.69
2024-03-07T22:02:21.080Z,99806.63
2024-03-07T22:04:53.673Z,99812.47
2024-03-07T22:07:25.873Z,99810.53
2024-03-07T22:10:00.423Z,99804.94
2024-03-07T22:12:34.978Z,99810.84
2024-03-07T22:15:26.283Z,99811.81
2024-03-07T22:18:00.210Z,99811.59
2024-03-07T22:20:32.521Z,99802.81
2024-03-07T22:23:06.031Z,99809.91
2024-03-07T22:25:37.907Z,99803.97
2024-03-07T22:28:09.649Z,99811.47
2024-03-07T22:30:42.426Z,99801.03
2024-03-07T22:33:14.216Z,99810.63
2024-03-07T22:35:48.760Z,99794.00
2024-03-07T22:38:22.751Z,99796.69
2024-03-07T22:40:56.109Z,99788.53
2024-03-07T22:43:28.213Z,99782.03
2024-03-07T22:46:00.047Z,99786.78
2024-03-07T22:48:36.438Z,99787.41
2024-03-07T22:51:11.725Z,99780.28
2024-03-07T22:53:43.391Z,99775.75
2024-03-07T22:56:17.094Z,99780.09
2024-03-07T22:58:49.010Z,99778.53
2024-03-07T23:01:35.145Z,99775.72
2024-03-07T23:04:06.987Z,99777.59
2024-03-07T23:06:38.733Z,99774.84
2024-03-07T23:09:10.669Z,99776.72
2024-03-07T23:11:43.930Z,99773.38
2024-03-07T23:14:16.742Z,99776.59
2024-03-07T23:16:50.099Z,99780.50
2024-03-07T23:19:21.855Z,99775.16
2024-03-07T23:21:55.205Z,99773.38
2024-03-07T23:24:27.365Z,99775.03
2024-03-07T23:26:59.147Z,99767.31
2024-03-07T23:29:31.338Z,99779.31
2024-03-07T23:32:03.715Z,99767.31
2024-03-07T23:34:35.638Z,99765.88
2024-03-07T23:37:16.465Z,99772.66
2024-03-07T23:39:48.568Z,99766.28
2024-03-07T23:42:22.086Z,99763.56
2024-03-07T23:44:55.672Z,99759.19
2024-03-07T23:47:27.655Z,99759.88
2024-03-07T23:49:59.825Z,99763.41
2024-03-07T23:52:31.582Z,99750.06
2024-03-07T23:55:03.498Z,99757.44
2024-03-07T23:57:35.296Z,99749.38
